createdAt,value
2022-11-15T00:01:41.795Z,53.37
2022-11-15T00:04:26.967Z,53.83
2022-11-15T00:07:17.957Z,53.58
2022-11-15T00:10:12.665Z,53.08
2022-11-15T00:12:58.200Z,53.39
2022-11-15T00:15:43.481Z,53.24
2022-11-15T00:18:30.080Z,53.12
2022-11-15T00:21:15.468Z,53.17
2022-11-15T00:24:00.434Z,53.30
2022-11-15T00:26:45.665Z,55.24
2022-11-15T00:29:31.041Z,55.59
2022-11-15T00:32:16.109Z,55.50
2022-11-15T00:35:01.434Z,54.98
2022-11-15T00:37:48.330Z,54.68
2022-11-15T00:40:33.691Z,54.97
2022-11-15T00:43:19.248Z,54.92
2022-11-15T00:46:04.555Z,55.15
2022-11-15T00:48:49.913Z,55.53
2022-11-15T00:51:34.912Z,55.25
2022-11-15T00:54:20.278Z,55.53
2022-11-15T00:57:05.733Z,55.42
2022-11-15T00:59:50.562Z,55.55
2022-11-15T01:02:35.972Z,55.29
2022-11-15T01:05:21.523Z,55.15
2022-11-15T01:08:06.793Z,55.20
2022-11-15T01:10:52.192Z,55.31
2022-11-15T01:13:38.863Z,55.08
2022-11-15T01:16:23.987Z,55.84
2022-11-15T01:19:09.264Z,55.25
2022-11-15T01:21:54.547Z,54.88
2022-11-15T01:24:39.953Z,54.77
2022-11-15T01:27:25.260Z,54.87
2022-11-15T01:30:10.844Z,53.45
2022-11-15T01:32:55.981Z,53.11
2022-11-15T01:35:41.452Z,53.15
2022-11-15T01:38:26.688Z,52.66
2022-11-15T01:41:20.483Z,52.74
2022-11-15T01:44:43.471Z,53.04
2022-11-15T01:47:40.513Z,53.03
2022-11-15T01:50:33.216Z,52.61
2022-11-15T01:53:21.031Z,52.53
2022-11-15T01:56:17.677Z,52.04
2022-11-15T01:59:06.536Z,51.89
2022-11-15T02:01:52.031Z,52.28
2022-11-15T02:04:42.439Z,52.72
2022-11-15T02:07:29.211Z,52.54
2022-11-15T02:10:18.962Z,53.00
2022-11-15T02:13:04.172Z,53.20
2022-11-15T02:16:11.282Z,52.62
2022-11-15T02:19:02.414Z,52.48
2022-11-15T02:22:17.686Z,52.65
2022-11-15T02:25:14.727Z,52.66
2022-11-15T02:28:23.548Z,52.51
2022-11-15T02:31:31.431Z,52.42
2022-11-15T02:34:38.622Z,52.17
2022-11-15T02:37:47.694Z,52.08
2022-11-15T02:40:50.922Z,51.81
2022-11-15T02:43:58.883Z,51.68
2022-11-15T02:47:15.496Z,51.59
2022-11-15T02:50:07.551Z,52.09
2022-11-15T02:52:53.043Z,52.34
2022-11-15T02:55:52.708Z,52.07
2022-11-15T02:59:00.328Z,52.30
2022-11-15T03:02:09.101Z,52.46
2022-11-15T03:04:59.153Z,52.27
2022-11-15T03:08:00.904Z,52.79
2022-11-15T03:11:05.044Z,53.32
2022-11-15T03:14:18.593Z,53.26
2022-11-15T03:17:20.034Z,53.22
2022-11-15T03:20:09.532Z,53.47
2022-11-15T03:22:59.220Z,53.28
2022-11-15T03:25:49.422Z,52.94
2022-11-15T03:28:43.159Z,52.86
2022-11-15T03:31:51.767Z,52.53
2022-11-15T03:35:07.851Z,52.48
2022-11-15T03:38:24.303Z,52.01
2022-11-15T03:41:21.048Z,52.52
2022-11-15T03:44:34.086Z,52.13
2022-11-15T03:47:30.121Z,52.56
2022-11-15T03:50:19.482Z,52.73
2022-11-15T03:53:04.640Z,52.51
2022-11-15T03:55:50.027Z,52.12
2022-11-15T03:58:35.635Z,51.77
2022-11-15T04:01:21.176Z,52.01
2022-11-15T04:04:06.357Z,52.15
2022-11-15T04:06:51.686Z,52.06
2022-11-15T04:09:56.935Z,52.09
2022-11-15T04:12:47.193Z,52.14
2022-11-15T04:15:32.938Z,52.67
2022-11-15T04:18:18.134Z,52.45
2022-11-15T04:21:22.101Z,52.37
2022-11-15T04:24:13.270Z,52.06
2022-11-15T04:26:58.560Z,52.14
2022-11-15T04:29:43.853Z,52.37
2022-11-15T04:32:29.323Z,52.74
2022-11-15T04:35:14.728Z,53.04
2022-11-15T04:38:00.894Z,52.53
2022-11-15T04:40:45.902Z,52.57
2022-11-15T04:43:31.691Z,52.64
2022-11-15T04:46:17.041Z,52.58
2022-11-15T04:49:02.355Z,53.00
2022-11-15T04:51:47.859Z,52.73
2022-11-15T04:54:33.282Z,52.52
2022-11-15T04:57:18.563Z,52.40
2022-11-15T05:00:06.962Z,52.02
2022-11-15T05:03:11.114Z,52.38
2022-11-15T05:05:56.330Z,52.24
2022-11-15T05:08:41.611Z,52.09
2022-11-15T05:11:28.157Z,51.87
2022-11-15T05:14:13.722Z,52.46
2022-11-15T05:16:59.190Z,52.48
2022-11-15T05:19:45.566Z,52.23
2022-11-15T05:22:31.155Z,52.47
2022-11-15T05:25:16.576Z,52.28
2022-11-15T05:28:01.973Z,52.47
2022-11-15T05:30:47.669Z,52.44
2022-11-15T05:33:34.915Z,51.81
2022-11-15T05:36:39.468Z,51.76
2022-11-15T05:39:24.772Z,51.90
2022-11-15T05:42:15.289Z,51.75
2022-11-15T05:45:03.286Z,51.83
2022-11-15T05:47:49.871Z,51.19
2022-11-15T05:50:37.600Z,51.73
2022-11-15T05:53:25.181Z,51.93
2022-11-15T05:56:10.934Z,51.63
2022-11-15T05:58:59.762Z,52.13
2022-11-15T06:01:45.015Z,52.05
2022-11-15T06:04:30.334Z,51.88
2022-11-15T06:07:15.709Z,52.12
2022-11-15T06:10:00.872Z,51.58
2022-11-15T06:12:46.293Z,51.60
2022-11-15T06:15:34.741Z,51.68
2022-11-15T06:18:19.996Z,51.62
2022-11-15T06:21:06.408Z,52.33
2022-11-15T06:23:51.704Z,52.44
2022-11-15T06:26:36.934Z,52.30
2022-11-15T06:29:22.267Z,52.38
2022-11-15T06:32:08.113Z,52.13
2022-11-15T06:34:53.408Z,51.61
2022-11-15T06:37:38.649Z,52.02
2022-11-15T06:40:23.953Z,51.69
2022-11-15T06:43:09.255Z,52.31
2022-11-15T06:45:54.812Z,52.27
2022-11-15T06:48:40.618Z,52.18
2022-11-15T06:51:25.736Z,52.29
2022-11-15T06:54:10.911Z,52.46
2022-11-15T06:56:56.212Z,52.27
2022-11-15T06:59:41.414Z,52.04
2022-11-15T07:02:27.088Z,51.79
2022-11-15T07:05:13.444Z,51.37
2022-11-15T07:07:59.430Z,51.50
2022-11-15T07:10:44.432Z,51.71
2022-11-15T07:13:34.667Z,51.92
2022-11-15T07:16:20.308Z,52.01
2022-11-15T07:19:05.637Z,51.55
2022-11-15T07:21:50.924Z,52.05
2022-11-15T07:24:36.211Z,51.73
2022-11-15T07:27:21.491Z,51.45
2022-11-15T07:30:07.288Z,51.76
2022-11-15T07:32:57.315Z,51.66
2022-11-15T07:35:43.597Z,51.85
2022-11-15T07:38:29.835Z,51.50
2022-11-15T07:41:15.158Z,51.63
2022-11-15T07:44:01.440Z,51.46
2022-11-15T07:46:46.925Z,51.89
2022-11-15T07:49:32.324Z,51.56
2022-11-15T07:52:17.547Z,51.65
2022-11-15T07:55:03.729Z,51.62
2022-11-15T07:57:49.030Z,51.69
2022-11-15T08:00:35.385Z,51.69
2022-11-15T08:03:20.360Z,51.79
2022-11-15T08:06:06.028Z,51.65
2022-11-15T08:08:51.095Z,51.46
2022-11-15T08:11:36.485Z,51.26
2022-11-15T08:14:22.970Z,51.16
2022-11-15T08:17:08.004Z,50.93
2022-11-15T08:19:53.477Z,50.62
2022-11-15T08:22:38.727Z,49.82
2022-11-15T08:25:27.212Z,49.45
2022-11-15T08:28:12.408Z,48.85
2022-11-15T08:30:57.732Z,48.63
2022-11-15T08:33:43.656Z,48.03
2022-11-15T08:36:34.824Z,47.40
2022-11-15T08:39:27.016Z,46.96
2022-11-15T08:42:16.963Z,46.75
2022-11-15T08:45:05.424Z,45.30
2022-11-15T08:47:54.196Z,44.57
2022-11-15T08:50:39.861Z,42.97
2022-11-15T08:53:25.201Z,43.01
2022-11-15T08:56:12.221Z,43.10
2022-11-15T08:58:57.520Z,42.69
2022-11-15T09:01:42.964Z,42.09
2022-11-15T09:04:28.431Z,41.93
2022-11-15T09:07:14.649Z,41.71
2022-11-15T09:10:00.152Z,41.61
2022-11-15T09:12:45.305Z,41.04
2022-11-15T09:15:30.591Z,40.42
2022-11-15T09:18:15.830Z,40.24
2022-11-15T09:21:03.085Z,39.69
2022-11-15T09:23:51.471Z,38.78
2022-11-15T09:26:36.772Z,38.01
2022-11-15T09:29:22.285Z,37.60
2022-11-15T09:32:07.592Z,36.83
2022-11-15T09:34:52.930Z,36.69
2022-11-15T09:37:38.557Z,36.20
2022-11-15T09:40:23.886Z,35.73
2022-11-15T09:43:42.209Z,35.26
2022-11-15T09:46:41.333Z,34.80
2022-11-15T09:49:34.061Z,34.93
2022-11-15T09:52:13.737Z,34.43
2022-11-15T09:54:54.037Z,34.78
2022-11-15T09:57:24.260Z,33.75
2022-11-15T10:00:07.851Z,33.51
2022-11-15T10:03:16.122Z,32.83
2022-11-15T10:05:46.418Z,32.66
2022-11-15T10:08:38.027Z,32.22
2022-11-15T10:13:58.279Z,32.22
2022-11-15T10:16:56.163Z,32.68
2022-11-15T10:19:47.492Z,31.59
2022-11-15T10:22:36.236Z,31.08
2022-11-15T10:25:41.328Z,31.17
2022-11-15T10:28:22.891Z,31.54
2022-11-15T10:30:55.478Z,31.16
2022-11-15T10:33:40.159Z,30.73
2022-11-15T10:36:09.595Z,30.50
2022-11-15T10:39:05.312Z,29.45
2022-11-15T10:41:37.094Z,28.87
2022-11-15T10:44:12.528Z,26.79
2022-11-15T10:46:48.898Z,25.07
2022-11-15T10:49:23.393Z,23.55
2022-11-15T10:51:57.656Z,21.11
2022-11-15T10:54:25.561Z,19.18
2022-11-15T10:56:55.727Z,17.26
2022-11-15T10:59:34.897Z,17.45
2022-11-15T11:02:38.942Z,17.21
2022-11-15T11:05:26.380Z,17.16
2022-11-15T11:08:05.599Z,17.20
2022-11-15T11:10:52.252Z,16.71
2022-11-15T11:13:29.108Z,16.75
2022-11-15T11:16:14.461Z,17.59
2022-11-15T11:19:13.335Z,18.96
2022-11-15T11:22:01.262Z,20.30
2022-11-15T11:24:53.312Z,21.31
2022-11-15T11:27:38.101Z,22.03
2022-11-15T11:30:33.002Z,22.49
2022-11-15T11:33:10.869Z,23.57
2022-11-15T11:36:04.820Z,23.78
2022-11-15T11:39:09.136Z,24.42
2022-11-15T11:41:49.575Z,24.96
2022-11-15T11:44:44.699Z,24.79
2022-11-15T11:47:34.682Z,24.38
2022-11-15T11:50:14.286Z,25.48
2022-11-15T11:53:25.355Z,25.80
2022-11-15T11:55:59.783Z,25.50
2022-11-15T11:58:43.875Z,25.48
2022-11-15T12:01:16.110Z,25.76
2022-11-15T12:04:31.547Z,25.52
2022-11-15T12:07:05.454Z,25.28
2022-11-15T12:09:45.028Z,24.62
2022-11-15T12:12:26.010Z,24.66
2022-11-15T12:15:01.959Z,24.89
2022-11-15T12:17:33.616Z,24.03
2022-11-15T12:20:10.214Z,23.55
2022-11-15T12:22:54.430Z,22.52
2022-11-15T12:25:20.824Z,22.71
2022-11-15T12:27:56.674Z,22.55
2022-11-15T12:30:26.264Z,22.76
2022-11-15T12:33:01.236Z,22.60
2022-11-15T12:35:38.031Z,22.01
2022-11-15T12:38:05.178Z,22.13
2022-11-15T12:40:34.588Z,20.81
2022-11-15T12:43:16.215Z,20.63
2022-11-15T12:45:47.058Z,19.93
2022-11-15T12:48:16.698Z,19.09
2022-11-15T12:50:55.465Z,18.63
2022-11-15T12:53:25.422Z,18.00
2022-11-15T12:56:04.301Z,17.07
2022-11-15T12:58:44.728Z,17.41
2022-11-15T13:01:11.642Z,17.83
2022-11-15T13:04:17.275Z,19.36
2022-11-15T13:06:47.003Z,20.15
2022-11-15T13:09:38.577Z,19.71
2022-11-15T13:12:09.983Z,19.96
2022-11-15T13:14:44.381Z,20.28
2022-11-15T13:17:22.531Z,20.13
2022-11-15T13:19:59.681Z,20.87
2022-11-15T13:22:51.570Z,21.34
2022-11-15T13:25:49.820Z,21.97
2022-11-15T13:28:23.554Z,22.74
2022-11-15T13:30:56.113Z,23.12
2022-11-15T13:33:35.986Z,23.51
2022-11-15T13:36:08.365Z,24.41
2022-11-15T13:38:37.176Z,24.57
2022-11-15T13:41:24.201Z,25.05
2022-11-15T13:43:52.620Z,25.09
2022-11-15T13:46:22.554Z,25.40
2022-11-15T13:48:59.484Z,25.93
2022-11-15T13:51:35.491Z,25.80
2022-11-15T13:54:13.088Z,26.17
2022-11-15T13:56:44.930Z,26.38
2022-11-15T13:59:18.708Z,26.54
2022-11-15T14:01:45.492Z,26.90
2022-11-15T14:04:15.828Z,26.82
2022-11-15T14:06:49.830Z,27.34
2022-11-15T14:09:36.325Z,27.63
2022-11-15T14:12:22.706Z,27.40
2022-11-15T14:14:49.464Z,27.96
2022-11-15T14:17:36.105Z,28.20
2022-11-15T14:20:19.700Z,28.19
2022-11-15T14:22:58.471Z,28.81
2022-11-15T14:25:30.716Z,28.10
2022-11-15T14:28:40.124Z,27.94
2022-11-15T14:31:13.929Z,27.80
2022-11-15T14:33:40.468Z,26.77
2022-11-15T14:36:18.882Z,27.20
2022-11-15T14:38:45.522Z,27.91
2022-11-15T14:41:27.326Z,29.00
2022-11-15T14:43:54.287Z,29.46
2022-11-15T14:46:20.852Z,30.20
2022-11-15T14:48:47.408Z,30.80
2022-11-15T14:51:16.628Z,31.13
2022-11-15T14:53:44.608Z,31.62
2022-11-15T14:56:11.550Z,32.63
2022-11-15T14:58:38.292Z,32.78
2022-11-15T15:01:19.834Z,33.25
2022-11-15T15:03:46.412Z,33.54
2022-11-15T15:06:17.874Z,34.26
2022-11-15T15:08:52.727Z,34.33
2022-11-15T15:11:28.724Z,34.84
2022-11-15T15:13:58.135Z,34.32
2022-11-15T15:16:25.423Z,34.71
2022-11-15T15:18:52.141Z,35.68
2022-11-15T15:21:31.018Z,36.80
2022-11-15T15:24:02.836Z,37.37
2022-11-15T15:26:29.398Z,38.00
2022-11-15T15:28:55.956Z,38.36
2022-11-15T15:31:22.521Z,38.95
2022-11-15T15:33:49.125Z,39.53
2022-11-15T15:36:19.762Z,39.90
2022-11-15T15:38:47.557Z,40.54
2022-11-15T15:41:17.852Z,40.44
2022-11-15T15:43:44.823Z,40.65
2022-11-15T15:46:14.625Z,40.83
2022-11-15T15:48:41.586Z,40.90
2022-11-15T15:51:14.315Z,40.87
2022-11-15T15:53:46.380Z,41.14
2022-11-15T15:56:12.893Z,41.12
2022-11-15T15:58:39.455Z,41.32
2022-11-15T16:01:07.552Z,41.64
2022-11-15T16:03:36.257Z,41.63
2022-11-15T16:06:05.128Z,42.09
2022-11-15T16:08:42.655Z,42.13
2022-11-15T16:11:18.151Z,42.09
2022-11-15T16:13:45.242Z,42.71
2022-11-15T16:16:14.012Z,42.76
2022-11-15T16:18:40.521Z,42.83
2022-11-15T16:21:09.303Z,43.09
2022-11-15T16:23:35.835Z,43.17
2022-11-15T16:26:03.943Z,43.53
2022-11-15T16:28:33.292Z,43.32
2022-11-15T16:31:08.163Z,43.48
2022-11-15T16:33:40.924Z,44.21
2022-11-15T16:36:30.409Z,44.25
2022-11-15T16:38:58.414Z,44.38
2022-11-15T16:41:24.947Z,44.65
2022-11-15T16:43:52.093Z,44.54
2022-11-15T16:46:27.397Z,44.64
2022-11-15T16:48:54.824Z,44.70
2022-11-15T16:51:22.165Z,44.62
2022-11-15T16:53:49.886Z,45.06
2022-11-15T16:56:22.599Z,45.28
2022-11-15T16:58:49.180Z,45.02
2022-11-15T17:01:23.065Z,45.41
2022-11-15T17:03:49.487Z,45.16
2022-11-15T17:06:18.248Z,45.44
2022-11-15T17:08:46.012Z,45.49
2022-11-15T17:11:21.266Z,45.88
2022-11-15T17:13:49.417Z,46.02
2022-11-15T17:16:17.597Z,45.82
2022-11-15T17:18:50.014Z,45.47
2022-11-15T17:21:18.624Z,45.81
2022-11-15T17:23:45.628Z,46.15
2022-11-15T17:26:33.105Z,46.00
2022-11-15T17:29:04.464Z,46.33
2022-11-15T17:31:33.599Z,46.28
2022-11-15T17:34:05.182Z,46.05
2022-11-15T17:36:32.142Z,46.04
2022-11-15T17:38:59.976Z,46.22
2022-11-15T17:41:27.934Z,46.38
2022-11-15T17:43:57.863Z,46.30
2022-11-15T17:46:24.709Z,46.62
2022-11-15T17:48:51.300Z,46.43
2022-11-15T17:51:18.967Z,46.99
2022-11-15T17:53:47.215Z,46.93
2022-11-15T17:56:16.409Z,46.36
2022-11-15T17:58:48.313Z,46.51
2022-11-15T18:01:30.349Z,46.89
2022-11-15T18:04:00.324Z,46.88
2022-11-15T18:06:30.382Z,46.93
2022-11-15T18:08:57.456Z,46.79
2022-11-15T18:11:44.431Z,47.02
2022-11-15T18:14:14.814Z,47.15
2022-11-15T18:16:41.930Z,46.89
2022-11-15T18:19:13.018Z,47.36
2022-11-15T18:21:57.248Z,47.28
2022-11-15T18:24:24.348Z,47.46
2022-11-15T18:26:51.287Z,47.67
2022-11-15T18:29:18.347Z,47.68
2022-11-15T18:31:47.828Z,48.02
2022-11-15T18:34:14.616Z,48.30
2022-11-15T18:36:41.645Z,48.00
2022-11-15T18:39:16.115Z,48.14
2022-11-15T18:41:44.700Z,48.27
2022-11-15T18:44:11.270Z,48.21
2022-11-15T18:46:39.183Z,48.34
2022-11-15T18:49:09.423Z,48.10
2022-11-15T18:51:41.698Z,48.49
2022-11-15T18:54:10.774Z,48.28
2022-11-15T18:56:38.049Z,48.31
2022-11-15T18:59:05.393Z,48.29
2022-11-15T19:01:37.682Z,48.32
2022-11-15T19:04:09.984Z,48.44
2022-11-15T19:06:42.261Z,48.34
2022-11-15T19:09:10.680Z,48.61
2022-11-15T19:11:39.491Z,48.71
2022-11-15T19:14:08.606Z,48.63
2022-11-15T19:16:38.526Z,49.27
2022-11-15T19:19:13.233Z,49.30
2022-11-15T19:21:39.828Z,48.77
2022-11-15T19:24:06.526Z,48.84
2022-11-15T19:26:33.155Z,48.84
2022-11-15T19:29:01.856Z,48.89
2022-11-15T19:31:31.322Z,48.91
2022-11-15T19:34:04.538Z,48.91
2022-11-15T19:36:37.447Z,49.35
2022-11-15T19:39:09.057Z,48.70
2022-11-15T19:41:38.321Z,49.49
2022-11-15T19:44:05.655Z,49.39
2022-11-15T19:46:32.423Z,49.26
2022-11-15T19:48:59.141Z,49.23
2022-11-15T19:51:29.240Z,49.17
2022-11-15T19:53:59.260Z,49.23
2022-11-15T19:56:25.864Z,49.07
2022-11-15T19:58:54.211Z,49.11
2022-11-15T20:01:22.113Z,49.17
2022-11-15T20:03:50.160Z,49.15
2022-11-15T20:06:22.022Z,49.57
2022-11-15T20:08:48.672Z,48.70
2022-11-15T20:11:16.280Z,48.91
2022-11-15T20:13:43.453Z,49.19
2022-11-15T20:16:17.152Z,49.28
2022-11-15T20:18:43.984Z,49.44
2022-11-15T20:21:10.945Z,49.07
2022-11-15T20:23:38.347Z,49.14
2022-11-15T20:26:07.609Z,49.29
2022-11-15T20:28:36.588Z,49.55
2022-11-15T20:31:03.627Z,48.88
2022-11-15T20:33:30.296Z,48.75
2022-11-15T20:35:56.872Z,48.98
2022-11-15T20:38:23.509Z,49.10
2022-11-15T20:40:56.001Z,49.40
2022-11-15T20:43:25.633Z,49.21
2022-11-15T20:45:52.156Z,49.19
2022-11-15T20:48:18.744Z,49.03
2022-11-15T20:50:47.056Z,49.00
2022-11-15T20:53:16.191Z,49.05
2022-11-15T20:55:47.872Z,49.10
2022-11-15T20:58:15.505Z,48.91
2022-11-15T21:00:43.221Z,48.95
2022-11-15T21:03:10.278Z,48.97
2022-11-15T21:05:42.341Z,48.75
2022-11-15T21:08:09.962Z,48.96
2022-11-15T21:10:55.272Z,48.63
2022-11-15T21:13:22.045Z,49.39
2022-11-15T21:15:48.829Z,49.24
2022-11-15T21:18:15.646Z,49.25
2022-11-15T21:20:42.752Z,49.44
2022-11-15T21:23:09.360Z,49.65
2022-11-15T21:25:35.880Z,49.22
2022-11-15T21:28:02.851Z,48.86
2022-11-15T21:30:29.527Z,48.99
2022-11-15T21:32:56.054Z,49.44
2022-11-15T21:35:23.704Z,49.19
2022-11-15T21:37:56.072Z,49.26
2022-11-15T21:40:23.676Z,49.15
2022-11-15T21:42:50.633Z,49.48
2022-11-15T21:45:17.175Z,48.92
2022-11-15T21:47:46.318Z,48.99
2022-11-15T21:50:13.776Z,48.83
2022-11-15T21:52:40.567Z,49.35
2022-11-15T21:55:07.953Z,49.04
2022-11-15T21:57:34.632Z,49.05
2022-11-15T22:00:19.642Z,49.51
2022-11-15T22:02:46.239Z,49.17
2022-11-15T22:05:12.945Z,49.26
2022-11-15T22:07:39.582Z,49.32
2022-11-15T22:10:06.525Z,49.34
2022-11-15T22:12:33.078Z,49.27
2022-11-15T22:14:59.776Z,49.34
2022-11-15T22:17:46.276Z,49.05
2022-11-15T22:20:37.706Z,49.09
2022-11-15T22:23:00.096Z,48.90
2022-11-15T22:25:26.797Z,48.91
2022-11-15T22:27:53.883Z,48.99
2022-11-15T22:30:20.935Z,48.96
2022-11-15T22:32:47.533Z,49.06
2022-11-15T22:35:14.653Z,49.37
2022-11-15T22:37:41.542Z,49.09
2022-11-15T22:40:08.819Z,49.28
2022-11-15T22:42:35.391Z,49.28
2022-11-15T22:45:02.013Z,49.19
2022-11-15T22:47:28.591Z,48.96
2022-11-15T22:49:55.156Z,49.49
2022-11-15T22:52:21.727Z,49.53
2022-11-15T22:54:48.341Z,49.68
2022-11-15T22:57:14.932Z,49.65
2022-11-15T22:59:42.364Z,49.98
2022-11-15T23:02:09.060Z,49.92
2022-11-15T23:04:35.753Z,49.89
2022-11-15T23:07:03.162Z,49.20
2022-11-15T23:09:29.955Z,49.70
2022-11-15T23:12:15.017Z,49.59
2022-11-15T23:14:41.609Z,50.15
2022-11-15T23:17:08.170Z,50.61
2022-11-15T23:19:34.840Z,50.69
2022-11-15T23:22:20.139Z,50.37
2022-11-15T23:24:46.764Z,50.20
2022-11-15T23:27:15.575Z,49.81
2022-11-15T23:30:00.878Z,50.35
2022-11-15T23:32:46.044Z,50.57
2022-11-15T23:35:12.606Z,50.79
2022-11-15T23:37:39.518Z,50.71
2022-11-15T23:40:07.003Z,50.65
2022-11-15T23:42:33.564Z,50.55
2022-11-15T23:45:00.151Z,50.69
2022-11-15T23:47:26.714Z,50.74
2022-11-15T23:49:53.265Z,50.61
2022-11-15T23:52:19.951Z,50.22
2022-11-15T23:54:46.548Z,50.40
2022-11-15T23:57:13.161Z,50.72
2022-11-15T23:59:40.702Z,50.31
